Latest Weather Observations for Ballina

IDN60801

Issued at 8:03 pm EST Thursday 21 September 2017 (issued every 30 minutes, with the page automatically refreshed every 10 minutes)

About weather observations | Map of weather stations | Latest weather observations for NSW | Other Formats
Station Details ID: 058198 Name: BALLINA AIRPORT AWS Lat: -28.84 Lon: 153.56 Height: 1.3 m
Data from the previous 72 hours. | See also: Recent months at Ballina
Date/Time
EST
Temp
°C
App
Temp
°C
Dew
Point
°C
Rel
Hum
%
Delta-T
°C
Wind Press
QNH
hPa
Press
MSL
hPa
Rain since
9am
mm
Dir  Spd
km/h
Gust
km/h
Spd
kts
Gust
kts
21/08:00pm 19.7 17.6 15.1 75 2.7 N 20 30 11 16 1016.8 1016.8 0.0
21/07:30pm 19.7 17.2 15.1 75 2.7 N 22 33 12 18 1016.5 1016.5 0.0
21/07:00pm 19.6 17.0 15.0 75 2.7 N 22 30 12 16 1016.4 1016.4 0.0
21/06:30pm 20.0 17.0 14.8 72 3.0 N 24 35 13 19 1016.0 1016.0 0.0
21/06:00pm 20.0 17.8 14.8 72 3.0 N 20 33 11 18 1015.8 1015.8 0.0
21/05:30pm 20.4 18.2 14.5 69 3.4 NNE 19 28 10 15 1015.5 1015.5 0.0
21/05:00pm 21.2 19.0 14.8 67 3.8 NNE 20 28 11 15 1015.3 1015.3 0.0
21/04:30pm 21.9 19.3 15.0 65 4.1 NE 22 30 12 16 1015.3 1015.3 0.0
21/04:00pm 22.2 18.7 14.6 62 4.5 NE 26 35 14 19 1015.1 1015.1 0.0
21/03:30pm 22.6 18.8 14.7 61 4.7 NNE 28 37 15 20 1015.1 1015.1 0.0
21/03:00pm 22.7 18.4 14.3 59 4.9 NE 30 41 16 22 1015.1 1015.1 0.0
21/02:30pm 22.8 17.6 14.4 59 4.9 NE 35 44 19 24 1015.3 1015.3 0.0
21/02:00pm 23.1 18.3 14.1 57 5.3 NE 32 39 17 21 1015.4 1015.4 0.0
21/01:30pm 23.4 19.3 13.8 54 5.6 NNE 28 37 15 20 1015.7 1015.7 0.0
21/01:00pm 23.9 19.3 14.6 56 5.5 NE 32 39 17 21 1016.1 1016.1 0.0
21/12:30pm 24.6 21.1 13.5 50 6.5 NE 24 32 13 17 1016.6 1016.6 0.0
21/12:00pm 24.3 19.9 12.9 49 6.6 NE 28 35 15 19 1017.1 1017.1 0.0
21/11:30am 23.9 23.4 12.8 49 6.4 N 7 19 4 10 1017.7 1017.7 0.0
21/11:00am 23.7 22.0 9.7 41 7.6 N 9 19 5 10 1018.2 1018.2 0.0
21/10:30am 23.2 21.3 10.6 45 7.0 NW 11 22 6 12 1018.6 1018.6 0.0
21/10:00am 22.1 19.6 10.9 49 6.2 NNW 15 20 8 11 1019.0 1019.0 0.0
21/09:30am 22.2 18.9 11.0 49 6.2 NNW 19 24 10 13 1019.3 1019.3 0.0
21/09:00am 22.0 19.5 12.3 54 5.5 N 17 28 9 15 1019.4 1019.4 0.0
21/08:30am 20.9 19.6 12.6 59 4.7 NNW 11 19 6 10 1019.6 1019.6 0.0
21/08:00am 19.7 20.6 13.9 69 3.3 NNW 2 7 1 4 1019.6 1019.6 0.0
21/07:30am 16.9 18.2 14.2 84 1.5 CALM 0 0 0 0 1019.5 1019.5 0.0
21/07:00am 14.0 15.1 13.4 96 0.3 CALM 0 4 0 2 1019.3 1019.3 0.0
21/06:30am 11.8 12.2 11.3 97 0.3 CALM 0 0 0 0 1018.8 1018.8 0.0
21/06:15am 11.5 11.9 11.2 98 0.2 CALM 0 0 0 0 1018.6 1018.6 0.0
21/06:00am 10.5 10.6 10.0 97 0.3 CALM 0 0 0 0 1018.5 1018.5 0.0
21/05:42am 10.9 11.1 10.4 97 0.3 CALM 0 0 0 0 1018.4 1018.4 0.0
21/05:31am 10.8 10.9 10.2 96 0.3 CALM 0 0 0 0 1018.4 1018.4 0.0
21/05:30am 10.8 10.9 10.2 96 0.3 CALM 0 0 0 0 1018.4 1018.4 0.0
21/05:05am 11.2 11.4 10.6 96 0.3 CALM 0 0 0 0 1018.2 1018.2 0.0
21/05:00am 11.0 11.2 10.4 96 0.3 CALM 0 0 0 0 1018.1 1018.1 0.0
21/04:37am 11.9 12.3 11.3 96 0.3 CALM 0 0 0 0 1017.9 1017.9 0.0
21/04:30am 11.9 12.3 11.3 96 0.3 CALM 0 0 0 0 1017.9 1017.9 0.0
21/04:00am 12.1 12.5 11.3 95 0.4 CALM 0 0 0 0 1017.6 1017.6 0.0
21/03:32am 12.4 12.9 11.5 94 0.5 CALM 0 0 0 0 1017.7 1017.7 0.0
21/03:30am 12.6 13.1 11.7 94 0.5 CALM 0 0 0 0 1017.7 1017.7 0.0
21/03:00am 13.3 13.9 12.0 92 0.7 CALM 0 0 0 0 1017.7 1017.7 0.0
21/02:30am 13.9 14.6 12.3 90 0.9 CALM 0 0 0 0 1017.7 1017.7 0.0
21/02:00am 14.2 15.1 12.9 92 0.7 CALM 0 0 0 0 1018.0 1018.0 0.0
21/01:30am 13.9 14.7 12.6 92 0.7 CALM 0 0 0 0 1018.3 1018.3 0.0
21/01:00am 14.4 15.2 12.4 88 1.1 CALM 0 0 0 0 1018.5 1018.5 0.0
21/12:30am 15.3 16.1 12.6 84 1.5 CALM 0 0 0 0 1018.7 1018.7 0.0
21/12:00am 16.2 16.5 13.5 84 1.5 W 4 6 2 3 1018.9 1018.9 0.0
 
Date/Time
EST
Temp
°C
App
Temp
°C
Dew
Point
°C
Rel
Hum
%
Delta-T
°C
Wind Press
QNH
hPa
Press
MSL
hPa
Rain since
9am
mm
Dir  Spd
km/h
Gust
km/h
Spd
kts
Gust
kts
20/11:30pm 16.0 15.8 12.9 82 1.7 W 6 9 3 5 1018.9 1018.9 0.0
20/11:00pm 16.1 16.3 13.0 82 1.7 WSW 4 7 2 4 1019.1 1019.1 0.0
20/10:30pm 15.8 16.7 12.9 83 1.6 CALM 0 0 0 0 1019.3 1019.3 0.0
20/10:00pm 15.2 15.9 12.3 83 1.6 CALM 0 4 0 2 1019.3 1019.3 0.0
20/09:30pm 15.6 15.3 12.7 83 1.6 W 6 6 3 3 1019.2 1019.2 0.0
20/09:00pm 16.2 15.9 12.7 80 1.9 WNW 6 6 3 3 1019.2 1019.2 0.0
20/08:30pm 15.5 16.4 13.0 85 1.4 CALM 0 0 0 0 1019.1 1019.1 0.0
20/08:00pm 15.8 16.5 12.2 79 2.0 CALM 0 0 0 0 1018.8 1018.8 0.0
20/07:30pm 17.0 17.0 12.3 74 2.6 E 4 6 2 3 1018.4 1018.4 0.0
20/07:00pm 17.7 17.9 11.9 69 3.2 E 2 6 1 3 1018.1 1018.1 0.0
20/06:30pm 17.9 17.0 11.5 66 3.5 E 7 9 4 5 1017.6 1017.6 0.0
20/06:00pm 18.5 17.3 11.6 64 3.8 E 9 13 5 7 1017.1 1017.1 0.0
20/05:30pm 18.7 16.7 11.5 63 3.9 E 13 17 7 9 1016.5 1016.5 0.0
20/05:00pm 19.5 16.7 11.3 59 4.5 E 17 24 9 13 1016.3 1016.3 0.0
20/04:30pm 19.7 16.7 10.7 56 4.9 ESE 17 22 9 12 1016.2 1016.2 0.0
20/04:00pm 20.5 17.3 11.2 55 5.1 E 19 28 10 15 1016.0 1016.0 0.0
20/03:30pm 20.3 17.0 11.0 55 5.1 ESE 19 26 10 14 1016.0 1016.0 0.0
20/03:00pm 20.7 17.2 10.8 53 5.4 ESE 20 30 11 16 1016.1 1016.1 0.0
20/02:30pm 21.8 18.4 11.2 51 5.9 ESE 20 28 11 15 1016.5 1016.5 0.0
20/02:00pm 21.5 17.9 11.8 54 5.4 SE 22 32 12 17 1016.8 1016.8 0.0
20/01:30pm 22.0 18.4 12.0 53 5.6 ESE 22 28 12 15 1017.2 1017.2 0.0
20/01:00pm 21.2 17.7 11.0 52 5.6 SE 20 28 11 15 1017.6 1017.6 0.0
20/12:30pm 21.3 17.3 10.5 50 5.9 SSE 22 32 12 17 1018.2 1018.2 0.0
20/12:00pm 21.9 18.5 11.3 51 5.9 SSE 20 28 11 15 1018.4 1018.4 0.0
20/11:30am 22.6 19.2 11.4 49 6.2 SSE 20 26 11 14 1018.8 1018.8 0.0
20/11:00am 21.5 18.1 10.6 50 5.9 SSE 19 28 10 15 1019.3 1019.3 0.0
20/10:30am 21.8 18.6 11.2 51 5.9 SSE 19 24 10 13 1019.4 1019.4 0.0
20/10:00am 21.8 19.1 11.8 53 5.6 S 17 24 9 13 1019.7 1019.7 0.0
20/09:30am 21.8 19.7 11.2 51 5.9 SSE 13 24 7 13 1019.9 1019.9 0.0
20/09:00am 19.9 17.4 11.1 57 4.8 SSW 15 24 8 13 1020.3 1020.3 0.0
20/08:30am 21.7 18.7 10.8 50 6.0 SSE 17 24 9 13 1020.3 1020.3 -
20/08:00am 21.0 17.5 10.8 52 5.6 SSE 20 28 11 15 1020.2 1020.2 -
20/07:30am 20.2 16.8 11.4 57 4.8 SSE 20 30 11 16 1019.8 1019.8 -
20/07:00am 19.4 16.2 11.2 59 4.5 SSE 19 26 10 14 1019.5 1019.5 -
20/06:30am 18.4 15.7 11.7 65 3.7 S 17 24 9 13 1019.1 1019.1 -
20/06:00am 18.1 15.5 12.1 68 3.3 S 17 22 9 12 1018.7 1018.7 -
20/05:30am 18.1 15.7 12.5 70 3.1 S 17 24 9 13 1018.4 1018.4 -
20/05:00am 18.1 15.2 12.3 69 3.2 S 19 28 10 15 1017.9 1017.9 -
20/04:30am 18.3 15.5 12.5 69 3.2 S 19 32 10 17 1017.6 1017.6 -
20/04:00am 18.4 15.5 12.8 70 3.1 S 20 28 11 15 1017.3 1017.3 -
20/03:30am 18.8 15.8 13.6 72 3.0 S 22 32 12 17 1017.1 1017.1 -
20/03:00am 19.1 15.4 13.9 72 3.0 S 26 35 14 19 1017.0 1017.0 0.0
20/02:30am 19.5 15.9 14.1 71 3.1 S 26 39 14 21 1017.1 1017.1 -
20/02:00am 19.7 17.2 15.1 75 2.7 S 22 37 12 20 1017.0 1017.0 -
20/01:30am 19.7 17.3 15.4 76 2.5 SSW 22 37 12 20 1016.9 1016.9 -
20/01:00am 19.4 17.3 15.3 77 2.4 SSW 20 28 11 15 1016.8 1016.8 -
20/12:30am 19.3 18.5 16.0 81 2.0 SSW 15 22 8 12 1016.7 1016.7 -
20/12:00am 19.5 17.4 16.2 81 2.0 SSW 22 33 12 18 1016.7 1016.7 -
 
Date/Time
EST
Temp
°C
App
Temp
°C
Dew
Point
°C
Rel
Hum
%
Delta-T
°C
Wind Press
QNH
hPa
Press
MSL
hPa
Rain since
9am
mm
Dir  Spd
km/h
Gust
km/h
Spd
kts
Gust
kts
19/11:30pm 19.9 17.7 16.9 83 1.8 S 24 35 13 19 1016.5 1016.5 -
19/11:23pm 20.1 17.0 16.5 80 2.2 S 28 39 15 21 1016.4 1016.4 -
19/11:00pm 17.7 17.5 11.9 69 3.2 NE 4 9 2 5 1015.1 1015.1 -
19/10:30pm 19.2 18.3 12.7 66 3.6 NNW 9 17 5 9 1015.0 1015.0 -
19/10:00pm 20.1 19.0 13.1 64 4.0 N 11 15 6 8 1015.0 1015.0 -
19/09:30pm 20.9 20.2 13.1 61 4.4 NNW 9 17 5 9 1014.8 1014.8 -
19/09:00pm 21.2 20.0 13.9 63 4.2 N 13 19 7 10 1014.8 1014.8 0.0
19/08:30pm 21.0 19.3 14.6 67 3.7 N 17 24 9 13 1014.5 1014.5 -
19/08:00pm 21.5 18.5 14.9 66 3.9 N 24 35 13 19 1014.3 1014.3 -
19/07:30pm 21.8 19.3 15.2 66 3.9 N 22 30 12 16 1014.1 1014.1 -
19/07:00pm 21.9 19.7 15.0 65 4.1 N 20 28 11 15 1014.1 1014.1 -
19/06:30pm 22.0 19.0 14.9 64 4.2 N 24 33 13 18 1013.9 1013.9 -
19/06:00pm 22.1 19.0 14.5 62 4.5 N 24 30 13 16 1013.7 1013.7 -
19/05:30pm 22.5 19.9 14.9 62 4.5 N 22 28 12 15 1013.1 1013.1 -
19/05:00pm 23.3 21.1 14.8 59 5.0 N 20 30 11 16 1013.1 1013.1 -
19/04:30pm 24.1 21.9 14.8 56 5.5 N 20 30 11 16 1013.0 1013.0 -
19/04:00pm 24.9 20.5 12.8 47 7.0 NNE 28 39 15 21 1013.0 1013.0 -
19/03:30pm 25.9 22.3 14.1 48 7.0 NNE 26 37 14 20 1013.2 1013.2 -
19/03:00pm 26.7 23.3 13.8 45 7.6 NNE 24 32 13 17 1013.6 1013.6 -
19/02:30pm 27.0 24.6 14.4 46 7.5 NE 20 26 11 14 1014.1 1014.1 -
19/02:00pm 27.3 23.7 12.9 41 8.4 NE 24 33 13 18 1014.7 1014.7 -
19/01:30pm 27.2 24.0 13.2 42 8.2 NE 22 32 12 17 1015.3 1015.3 -
19/01:00pm 26.8 24.4 12.5 41 8.3 NE 17 24 9 13 1016.0 1016.0 -
19/12:30pm 26.4 23.3 13.5 45 7.6 NE 22 28 12 15 1016.4 1016.4 -
19/12:00pm 25.8 22.9 12.3 43 7.8 NNE 19 24 10 13 1017.0 1017.0 -
19/11:30am 25.3 22.9 12.5 45 7.4 NE 17 20 9 11 1017.9 1017.9 -
19/11:00am 25.7 23.9 13.2 46 7.3 ENE 15 22 8 12 1018.5 1018.5 0.0
19/10:30am 25.4 24.2 9.7 37 8.6 NW 6 13 3 7 1019.1 1019.1 0.0
19/10:00am 24.3 22.9 9.5 39 8.0 N 7 11 4 6 1019.4 1019.4 0.0
19/09:30am 23.3 22.6 10.0 43 7.3 NNE 4 9 2 5 1019.9 1019.9 0.0
19/09:00am 22.2 21.5 11.3 50 6.0 N 6 9 3 5 1020.2 1020.2 0.0
19/08:30am 20.7 19.6 10.8 53 5.4 NNW 7 11 4 6 1020.5 1020.5 0.0
19/08:00am 18.8 17.9 11.4 62 4.0 N 7 9 4 5 1020.6 1020.6 0.0
19/07:30am 17.1 16.4 12.0 72 2.8 NNW 7 11 4 6 1020.4 1020.4 0.0
19/07:00am 14.5 15.5 13.2 92 0.7 CALM 0 0 0 0 1020.3 1020.3 0.0
19/06:30am 11.2 11.4 10.7 97 0.3 CALM 0 0 0 0 1020.2 1020.2 0.0
19/06:00am 10.2 10.2 9.7 97 0.2 CALM 0 0 0 0 1020.1 1020.1 0.0
19/05:30am 9.9 9.8 9.3 96 0.3 CALM 0 0 0 0 1020.0 1020.0 0.0
19/05:10am 10.2 9.4 9.7 97 0.3 NW 4 6 2 3 1019.7 1019.7 0.0
19/05:00am 10.5 10.1 9.9 96 0.3 NNW 2 6 1 3 1019.8 1019.8 0.0
19/04:53am 10.5 10.6 10.0 97 0.3 CALM 0 0 0 0 1019.7 1019.7 0.0
19/04:44am 11.2 11.4 10.7 97 0.3 CALM 0 0 0 0 1019.7 1019.7 0.0
19/04:30am 10.8 10.9 10.0 95 0.4 CALM 0 0 0 0 1019.7 1019.7 0.0
19/04:23am 10.6 10.6 9.7 94 0.5 CALM 0 0 0 0 1019.7 1019.7 0.0
19/04:00am 11.0 11.0 9.8 92 0.6 CALM 0 0 0 0 1019.7 1019.7 0.0
19/03:30am 11.8 12.0 10.4 91 0.7 CALM 0 0 0 0 1020.0 1020.0 0.0
19/03:00am 12.7 12.8 10.1 84 1.3 CALM 0 6 0 3 1020.1 1020.1 0.0
19/02:30am 14.2 13.1 10.8 80 1.8 N 7 9 4 5 1020.3 1020.3 0.0
19/02:00am 15.8 15.2 11.6 76 2.3 NNW 6 9 3 5 1020.7 1020.7 0.0
19/01:30am 16.5 14.2 11.9 74 2.5 N 15 20 8 11 1021.1 1021.1 0.0
19/01:00am 17.1 14.1 11.8 71 2.9 N 19 22 10 12 1021.2 1021.2 0.0
19/12:30am 17.6 14.3 11.6 68 3.3 N 20 32 11 17 1021.3 1021.3 0.0
19/12:00am 17.7 13.8 12.2 70 3.0 N 24 35 13 19 1021.5 1021.5 0.0
 
Date/Time
EST
Temp
°C
App
Temp
°C
Dew
Point
°C
Rel
Hum
%
Delta-T
°C
Wind Press
QNH
hPa
Press
MSL
hPa
Rain since
9am
mm
Dir  Spd
km/h
Gust
km/h
Spd
kts
Gust
kts
18/11:30pm 17.5 14.3 12.0 70 3.0 N 20 30 11 16 1021.7 1021.7 0.0
18/11:00pm 17.5 14.0 12.2 71 2.9 N 22 30 12 16 1021.9 1021.9 0.0
18/10:30pm 17.5 14.4 12.2 71 2.9 N 20 30 11 16 1022.1 1022.1 0.0
18/10:00pm 17.7 14.2 12.2 70 3.0 N 22 32 12 17 1022.3 1022.3 0.0
18/09:30pm 17.8 14.6 12.0 69 3.2 N 20 35 11 19 1022.5 1022.5 0.0
18/09:00pm 17.5 15.2 11.8 69 3.1 NNE 15 24 8 13 1022.4 1022.4 0.0
18/08:30pm 17.8 14.6 11.8 68 3.3 NNE 20 28 11 15 1022.5 1022.5 0.0

Other Formats:

Comma delimited format used in spreadsheet applications
http://www.bom.gov.au/fwo/IDN60801/IDN60801.94596.axf

JavaScript Object Notation format (JSON) in row-major order
http://www.bom.gov.au/fwo/IDN60801/IDN60801.94596.json